Time;durP1;ratioP1;P1;durP2;ratioP2;P2;SDS_P1;SDS_P2;PMS_P1;PMS_P2;Temp;Humidity;BMP_temperature;BMP_pressure;BME280_temperature;BME280_humidity;BME280_pressure;Samples;Min_cycle;Max_cycle;Signal;HPM_P1;HPM_P2
2023/12/05 00:01:35;;;;;;;59.97;57.20;;;22.40;44.40;;;;;;5011706;28;20968;-66
2023/12/05 00:04:02;;;;;;;61.23;58.43;;;22.40;44.60;;;;;;5011768;28;20512;-66
2023/12/05 00:06:29;;;;;;;59.87;57.07;;;22.40;44.50;;;;;;5012012;28;20837;-66
2023/12/05 00:08:56;;;;;;;59.90;57.10;;;22.30;44.40;;;;;;5011513;28;20850;-66
2023/12/05 00:11:22;;;;;;;59.93;57.13;;;22.30;44.50;;;;;;5011586;28;20572;-66
2023/12/05 00:13:49;;;;;;;60.43;57.63;;;22.30;44.60;;;;;;5011708;28;20516;-66
2023/12/05 00:16:16;;;;;;;61.53;58.73;;;22.30;44.60;;;;;;5011819;28;20474;-66
2023/12/05 00:18:49;;;;;;;60.50;57.80;;;22.30;44.60;;;;;;5011661;28;20481;-66
2023/12/05 00:21:16;;;;;;;60.33;57.47;;;22.30;44.60;;;;;;5013899;28;20516;-66
2023/12/05 00:23:43;;;;;;;60.20;57.50;;;22.20;44.60;;;;;;5015492;28;20485;-66
2023/12/05 00:26:10;;;;;;;61.20;58.40;;;22.20;44.60;;;;;;5015831;28;20827;-66
2023/12/05 00:28:36;;;;;;;60.30;57.60;;;22.20;44.60;;;;;;5015477;28;20480;-66
2023/12/05 00:31:04;;;;;;;62.77;59.87;;;22.20;44.70;;;;;;5015368;28;20488;-66
2023/12/05 00:33:31;;;;;;;62.60;59.70;;;22.20;44.70;;;;;;5015556;28;20466;-66
2023/12/05 00:35:59;;;;;;;60.27;57.57;;;22.20;44.70;;;;;;5015532;28;20485;-66
2023/12/05 00:38:26;;;;;;;62.97;60.13;;;22.20;44.80;;;;;;5014992;28;20944;-66
2023/12/05 00:40:53;;;;;;;63.57;60.63;;;22.20;44.70;;;;;;5015279;28;20470;-66
2023/12/05 00:43:20;;;;;;;61.00;58.10;;;22.20;44.80;;;;;;5015105;28;20458;-67
2023/12/05 00:45:47;;;;;;;62.23;59.43;;;22.10;44.80;;;;;;5015354;28;20452;-66
2023/12/05 00:48:13;;;;;;;61.30;58.50;;;22.10;44.80;;;;;;5015051;28;20481;-66
2023/12/05 00:50:40;;;;;;;60.63;57.77;;;22.10;44.80;;;;;;5015011;28;20481;-66
2023/12/05 00:53:09;;;;;;;61.13;58.33;;;22.10;44.70;;;;;;5014627;28;20521;-66
2023/12/05 00:55:36;;;;;;;61.87;59.07;;;22.10;44.70;;;;;;5015106;28;20861;-66
2023/12/05 00:58:03;;;;;;;61.47;58.67;;;22.10;44.80;;;;;;5014967;28;20441;-66
2023/12/05 01:00:30;;;;;;;59.47;56.77;;;22.10;44.80;;;;;;5014864;28;20445;-66
2023/12/05 01:02:57;;;;;;;61.77;58.97;;;22.10;44.70;;;;;;5014827;28;20458;-67
2023/12/05 01:05:23;;;;;;;60.20;57.50;;;22.10;44.80;;;;;;5014880;28;20980;-66
2023/12/05 01:07:50;;;;;;;60.87;58.17;;;22.10;44.90;;;;;;5014526;28;20882;-66
2023/12/05 01:10:19;;;;;;;65.30;62.40;;;22.10;44.80;;;;;;5014684;28;20442;-67
2023/12/05 01:12:46;;;;;;;61.33;58.53;;;22.00;44.80;;;;;;5014739;28;20517;-66
2023/12/05 01:15:13;;;;;;;61.23;58.40;;;22.00;44.80;;;;;;5014840;28;20456;-66
2023/12/05 01:17:40;;;;;;;60.17;57.47;;;22.00;44.80;;;;;;5014546;28;20438;-66
2023/12/05 01:20:11;;;;;;;63.00;60.20;;;22.00;44.80;;;;;;5014472;28;20470;-66
2023/12/05 01:22:38;;;;;;;60.70;58.00;;;22.00;44.80;;;;;;5014382;28;20458;-66
2023/12/05 01:25:05;;;;;;;60.37;57.60;;;22.00;45.00;;;;;;5014521;28;20484;-67
2023/12/05 01:27:34;;;;;;;62.60;59.80;;;22.00;45.00;;;;;;5014293;28;20434;-66
2023/12/05 01:30:01;;;;;;;59.23;56.53;;;22.00;44.90;;;;;;5014319;28;20480;-66
2023/12/05 01:32:27;;;;;;;60.47;57.67;;;22.00;45.00;;;;;;5013709;28;20521;-66
2023/12/05 01:34:56;;;;;;;61.37;58.57;;;22.00;45.00;;;;;;5014185;28;20474;-66
2023/12/05 01:37:23;;;;;;;62.93;60.03;;;22.00;45.00;;;;;;5014101;28;20460;-66
2023/12/05 01:39:50;;;;;;;61.83;59.03;;;22.00;44.90;;;;;;5013964;28;20481;-66
2023/12/05 01:42:17;;;;;;;63.00;60.10;;;22.00;45.00;;;;;;5014292;28;20490;-66
2023/12/05 01:44:45;;;;;;;63.17;60.07;;;22.00;45.00;;;;;;5013921;28;20477;-66
2023/12/05 01:47:16;;;;;;;62.40;59.60;;;22.00;45.00;;;;;;5013984;28;20457;-66
2023/12/05 01:49:44;;;;;;;63.30;60.40;;;21.90;45.00;;;;;;5013919;28;20501;-66
2023/12/05 01:52:11;;;;;;;60.90;58.10;;;21.90;44.90;;;;;;5013790;28;20513;-66
2023/12/05 01:54:38;;;;;;;64.30;61.40;;;21.90;45.00;;;;;;5049186;22;20513;-60
2023/12/05 01:57:07;;;;;;;88.50;84.57;;;21.90;45.00;;;;;;5032597;28;20472;-61
2023/12/05 01:59:34;;;;;;;71.70;68.50;;;21.90;45.10;;;;;;5030322;28;20433;-57
2023/12/05 02:02:02;;;;;;;73.17;69.93;;;21.90;45.10;;;;;;5033487;28;20461;-58
2023/12/05 02:04:31;;;;;;;74.27;70.87;;;21.90;45.10;;;;;;5024872;28;20972;-62
2023/12/05 02:06:59;;;;;;;70.30;67.20;;;21.90;45.10;;;;;;5025077;28;20468;-60
2023/12/05 02:09:26;;;;;;;70.87;67.70;;;21.90;45.20;;;;;;5022410;28;20870;-59
2023/12/05 02:11:53;;;;;;;70.70;67.50;;;21.90;45.00;;;;;;5023912;28;20505;-59
2023/12/05 02:14:20;;;;;;;70.27;67.07;;;21.90;45.10;;;;;;5024866;28;20560;-61
2023/12/05 02:16:54;;;;;;;69.23;66.13;;;21.90;45.10;;;;;;5022467;28;20827;-59
2023/12/05 02:19:53;;;;;;;68.47;65.33;;;21.90;45.20;;;;;;5021448;28;20481;-59
2023/12/05 02:22:36;;;;;;;68.57;65.47;;;21.80;45.00;;;;;;5016945;28;20446;-60
2023/12/05 02:25:17;;;;;;;60.03;57.23;;;21.80;45.10;;;;;;5014378;28;20489;-60
2023/12/05 02:27:47;;;;;;;62.20;59.30;;;21.80;45.20;;;;;;5023067;28;20549;-61
2023/12/05 02:30:16;;;;;;;63.50;60.50;;;21.80;45.20;;;;;;5024890;28;20507;-59
2023/12/05 02:32:43;;;;;;;61.57;58.67;;;21.80;45.10;;;;;;5022626;28;20508;-62
2023/12/05 02:35:11;;;;;;;62.80;59.90;;;21.80;45.10;;;;;;5021063;28;20462;-62
2023/12/05 02:37:44;;;;;;;63.00;60.00;;;21.80;45.20;;;;;;5021990;28;20438;-62
2023/12/05 02:40:17;;;;;;;61.87;58.97;;;21.80;45.20;;;;;;5024749;28;20442;-60
2023/12/05 02:42:51;;;;;;;61.30;58.40;;;21.80;45.10;;;;;;5022555;28;20434;-60
2023/12/05 02:45:21;;;;;;;62.30;59.40;;;21.80;45.30;;;;;;5020058;28;20892;-60
2023/12/05 02:47:49;;;;;;;63.30;60.30;;;21.80;45.20;;;;;;5023079;28;20498;-59
2023/12/05 02:50:17;;;;;;;62.40;59.50;;;21.80;45.30;;;;;;5024532;28;20477;-59
2023/12/05 02:52:44;;;;;;;62.40;59.50;;;21.80;45.20;;;;;;5022297;28;21011;-59
2023/12/05 02:55:11;;;;;;;62.47;59.57;;;21.80;45.30;;;;;;5020644;28;20584;-59
2023/12/05 02:57:38;;;;;;;62.40;59.40;;;21.80;45.20;;;;;;5021474;28;20469;-61
2023/12/05 03:00:08;;;;;;;63.40;60.50;;;21.80;45.20;;;;;;5024279;28;20487;-58
2023/12/05 03:02:35;;;;;;;62.97;60.07;;;21.80;45.20;;;;;;5023369;28;20856;-61
2023/12/05 03:05:02;;;;;;;62.40;59.50;;;21.80;45.40;;;;;;5020519;28;20508;-60
2023/12/05 03:07:29;;;;;;;63.73;60.80;;;21.80;45.30;;;;;;5020630;28;20467;-61
2023/12/05 03:09:55;;;;;;;60.10;57.30;;;21.80;45.30;;;;;;5020727;28;20477;-60
2023/12/05 03:12:22;;;;;;;64.80;61.80;;;21.80;45.30;;;;;;5020311;28;20513;-60
2023/12/05 03:14:49;;;;;;;62.47;59.50;;;21.80;45.40;;;;;;5022653;28;20890;-60
2023/12/05 03:17:17;;;;;;;62.07;59.17;;;21.80;45.40;;;;;;5023715;28;20477;-58
2023/12/05 03:19:44;;;;;;;63.13;60.23;;;21.80;45.50;;;;;;5022043;28;20473;-58
2023/12/05 03:22:11;;;;;;;63.30;60.40;;;21.80;45.30;;;;;;5020325;28;20466;-60
2023/12/05 03:24:38;;;;;;;62.20;59.30;;;21.80;45.40;;;;;;5020886;28;20493;-60
2023/12/05 03:27:05;;;;;;;63.50;60.60;;;21.80;45.30;;;;;;5023611;28;20465;-60
2023/12/05 03:29:32;;;;;;;62.20;59.30;;;21.80;45.40;;;;;;5023645;28;20465;-60
2023/12/05 03:31:59;;;;;;;60.00;57.20;;;21.80;45.30;;;;;;5019993;28;20445;-60
2023/12/05 03:34:27;;;;;;;63.37;60.47;;;21.80;45.40;;;;;;5020103;28;20888;-62
2023/12/05 03:36:54;;;;;;;60.60;57.80;;;21.70;45.40;;;;;;5020211;28;20472;-63
2023/12/05 03:39:21;;;;;;;62.80;59.90;;;21.80;45.30;;;;;;5021892;28;20477;-62
2023/12/05 03:41:47;;;;;;;61.73;58.83;;;21.70;45.40;;;;;;5021268;28;20445;-62
2023/12/05 03:44:14;;;;;;;62.30;59.40;;;21.70;45.30;;;;;;5019966;28;20486;-63
2023/12/05 03:46:41;;;;;;;62.77;59.87;;;21.70;45.40;;;;;;5021043;28;20470;-62
2023/12/05 03:49:08;;;;;;;61.60;58.70;;;21.70;45.40;;;;;;5023436;28;20469;-62
2023/12/05 03:51:36;;;;;;;60.87;58.07;;;21.70;45.40;;;;;;5022902;28;20473;-63
2023/12/05 03:54:03;;;;;;;62.30;59.40;;;21.70;46.00;;;;;;5017304;28;20512;-62
2023/12/05 03:56:30;;;;;;;61.60;58.70;;;21.70;45.40;;;;;;5023195;28;20472;-62
2023/12/05 03:58:57;;;;;;;63.53;60.53;;;21.70;45.50;;;;;;5020000;28;20852;-63
2023/12/05 04:01:24;;;;;;;64.17;61.17;;;21.70;45.40;;;;;;5019860;28;20869;-62
2023/12/05 04:03:51;;;;;;;64.40;61.40;;;21.70;45.30;;;;;;5021924;28;20924;-62
2023/12/05 04:06:21;;;;;;;63.40;60.40;;;21.70;45.40;;;;;;5023259;28;20476;-62
2023/12/05 04:08:50;;;;;;;63.90;60.90;;;21.70;45.20;;;;;;5021072;28;20449;-62
2023/12/05 04:11:17;;;;;;;62.13;59.23;;;21.70;45.30;;;;;;5019488;28;20972;-62
2023/12/05 04:13:44;;;;;;;66.70;63.60;;;21.70;45.20;;;;;;5020815;28;20521;-62
2023/12/05 04:16:11;;;;;;;67.17;63.97;;;21.70;45.50;;;;;;5021921;28;20541;-62
2023/12/05 04:18:38;;;;;;;64.40;61.40;;;21.70;45.40;;;;;;5020175;28;20446;-62
2023/12/05 04:21:06;;;;;;;67.53;64.33;;;21.70;45.50;;;;;;5023024;28;20480;-62
2023/12/05 04:23:32;;;;;;;66.50;63.40;;;21.70;45.50;;;;;;5020035;28;20556;-62
2023/12/05 04:26:01;;;;;;;63.00;60.10;;;21.70;45.40;;;;;;5011639;28;20469;-62
2023/12/05 04:28:28;;;;;;;63.90;60.90;;;21.70;45.50;;;;;;5019587;28;20470;-60
2023/12/05 04:30:55;;;;;;;64.57;61.57;;;21.70;45.50;;;;;;5022204;28;20451;-60
2023/12/05 04:33:22;;;;;;;65.30;62.30;;;21.70;45.50;;;;;;5021515;28;20501;-62
2023/12/05 04:35:49;;;;;;;65.77;62.67;;;21.70;45.50;;;;;;5021367;28;20469;-62
2023/12/05 04:38:16;;;;;;;62.80;59.80;;;21.70;45.60;;;;;;5022879;28;20488;-61
2023/12/05 04:40:43;;;;;;;65.27;62.07;;;21.70;45.60;;;;;;5021656;28;20473;-61
2023/12/05 04:43:12;;;;;;;75.47;71.97;;;21.70;45.50;;;;;;5019289;28;20442;-62
2023/12/05 04:45:40;;;;;;;65.47;62.37;;;21.70;45.50;;;;;;5019790;28;20449;-62
2023/12/05 04:48:07;;;;;;;64.60;61.60;;;21.70;45.60;;;;;;5022819;28;20463;-62
2023/12/05 04:50:33;;;;;;;65.80;62.70;;;21.70;45.60;;;;;;5022845;28;20537;-62
2023/12/05 04:53:00;;;;;;;66.40;63.30;;;21.70;45.50;;;;;;5019389;28;21075;-60
2023/12/05 04:55:27;;;;;;;84.30;80.50;;;21.70;45.50;;;;;;5019190;28;20500;-62
2023/12/05 04:57:54;;;;;;;61.90;58.90;;;21.70;45.60;;;;;;5021805;28;20469;-62
2023/12/05 05:00:22;;;;;;;68.67;65.40;;;21.70;45.70;;;;;;5022747;28;20472;-62
2023/12/05 05:02:49;;;;;;;74.67;71.27;;;21.70;45.60;;;;;;5020571;28;20472;-62
2023/12/05 05:05:16;;;;;;;74.87;71.47;;;21.70;45.60;;;;;;5019190;28;20549;-62
2023/12/05 05:07:43;;;;;;;71.67;68.37;;;21.70;45.60;;;;;;5021291;28;20878;-61
2023/12/05 05:10:10;;;;;;;73.13;69.83;;;21.70;45.60;;;;;;5026230;28;20868;-62
2023/12/05 05:12:37;;;;;;;74.53;71.13;;;21.70;45.50;;;;;;5019356;28;20477;-60
2023/12/05 05:15:05;;;;;;;71.43;68.13;;;21.70;45.50;;;;;;5027644;28;20482;-61
2023/12/05 05:17:33;;;;;;;74.47;71.07;;;21.70;45.40;;;;;;5022634;28;20485;-61
2023/12/05 05:20:00;;;;;;;76.77;73.27;;;21.70;45.40;;;;;;5025743;28;20469;-62
2023/12/05 05:22:27;;;;;;;72.90;69.60;;;21.70;45.30;;;;;;5025790;28;20480;-61
2023/12/05 05:24:54;;;;;;;72.37;69.03;;;21.70;45.50;;;;;;5022946;28;20493;-61
2023/12/05 05:27:21;;;;;;;74.67;71.27;;;21.70;45.40;;;;;;5022372;28;21171;-62
2023/12/05 05:29:48;;;;;;;71.50;68.20;;;21.80;45.50;;;;;;5023775;28;20481;-62
2023/12/05 05:32:14;;;;;;;75.90;72.50;;;21.80;45.60;;;;;;5025844;28;20477;-62
2023/12/05 05:34:43;;;;;;;74.87;71.37;;;21.80;45.80;;;;;;5024852;28;20505;-61
2023/12/05 05:37:10;;;;;;;71.07;67.77;;;21.80;45.70;;;;;;5022159;28;20484;-62
2023/12/05 05:39:36;;;;;;;69.37;66.17;;;21.70;45.80;;;;;;5022250;28;20480;-62
2023/12/05 05:42:04;;;;;;;72.87;69.47;;;21.70;45.80;;;;;;5025516;28;20468;-61
2023/12/05 05:44:31;;;;;;;78.40;74.70;;;21.70;45.80;;;;;;5025526;28;20493;-59
2023/12/05 05:46:57;;;;;;;77.23;73.70;;;21.70;45.90;;;;;;5022593;28;20446;-61
2023/12/05 05:49:24;;;;;;;93.30;89.30;;;21.70;45.80;;;;;;5022016;28;20474;-60
2023/12/05 05:51:52;;;;;;;90.83;86.93;;;21.70;45.80;;;;;;5022634;28;20480;-60
2023/12/05 05:54:19;;;;;;;83.73;80.03;;;21.70;45.80;;;;;;5021788;28;20561;-60
2023/12/05 05:56:47;;;;;;;76.03;72.63;;;21.70;46.00;;;;;;5022952;28;20516;-62
2023/12/05 05:59:14;;;;;;;72.13;68.83;;;21.70;45.90;;;;;;5025288;28;20870;-62
2023/12/05 06:01:41;;;;;;;73.83;70.43;;;21.70;46.40;;;;;;5024499;28;20469;-62
2023/12/05 06:04:08;;;;;;;78.50;74.90;;;21.70;45.90;;;;;;5021729;28;20482;-62
2023/12/05 06:06:34;;;;;;;75.47;71.97;;;21.70;46.00;;;;;;5021680;28;20474;-62
2023/12/05 06:09:04;;;;;;;71.33;67.83;;;21.70;45.90;;;;;;5024935;28;20461;-61
2023/12/05 06:11:31;;;;;;;68.73;65.43;;;21.70;45.90;;;;;;5024847;28;20507;-62
2023/12/05 06:13:58;;;;;;;72.30;68.90;;;21.70;46.00;;;;;;5021866;28;21270;-60
2023/12/05 06:16:25;;;;;;;72.43;69.07;;;21.80;46.00;;;;;;5021139;28;20967;-60
2023/12/05 06:18:52;;;;;;;73.90;70.50;;;21.70;45.90;;;;;;5023195;28;21052;-62
2023/12/05 06:21:19;;;;;;;73.30;69.90;;;21.70;45.90;;;;;;5024683;28;20792;-63
2023/12/05 06:23:46;;;;;;;70.40;67.10;;;21.80;46.50;;;;;;5023924;28;20493;-62
2023/12/05 06:26:14;;;;;;;74.03;70.63;;;21.70;46.20;;;;;;5021389;28;20874;-64
2023/12/05 06:28:41;;;;;;;71.57;68.17;;;21.70;46.40;;;;;;5021059;28;20435;-64
2023/12/05 06:31:08;;;;;;;75.30;71.80;;;21.70;46.40;;;;;;5024702;28;20469;-65
2023/12/05 06:33:35;;;;;;;78.47;74.87;;;21.80;46.70;;;;;;5024458;28;20505;-66
2023/12/05 06:36:02;;;;;;;70.03;66.63;;;21.80;47.40;;;;;;5020658;28;20439;-65
2023/12/05 06:38:29;;;;;;;73.53;70.03;;;21.90;48.00;;;;;;5020962;28;20470;-67
2023/12/05 06:40:56;;;;;;;70.47;67.00;;;21.90;47.50;;;;;;5023215;28;20507;-66
2023/12/05 06:43:25;;;;;;;69.20;65.90;;;22.00;47.40;;;;;;5023862;28;20469;-66
2023/12/05 06:45:51;;;;;;;70.57;67.27;;;22.00;47.20;;;;;;5022669;28;20480;-64
2023/12/05 06:48:18;;;;;;;73.60;70.10;;;22.10;47.10;;;;;;5020877;28;20481;-68
2023/12/05 06:50:47;;;;;;;68.20;64.97;;;22.00;45.90;;;;;;5021262;28;20474;-65
2023/12/05 06:53:14;;;;;;;69.80;66.40;;;22.10;47.50;;;;;;5024125;28;20472;-65
2023/12/05 06:55:42;;;;;;;69.87;66.47;;;22.10;48.10;;;;;;5024014;28;20542;-66
2023/12/05 06:58:09;;;;;;;69.40;66.00;;;22.20;47.90;;;;;;5020522;28;20524;-66
2023/12/05 07:00:37;;;;;;;73.43;69.93;;;22.20;47.60;;;;;;5020518;28;20481;-66
2023/12/05 07:03:04;;;;;;;77.40;73.70;;;22.20;47.60;;;;;;5023810;28;20473;-67
2023/12/05 07:05:31;;;;;;;78.20;74.53;;;22.20;47.40;;;;;;5024428;28;20497;-67
2023/12/05 07:07:58;;;;;;;75.93;72.33;;;22.30;47.40;;;;;;5021515;28;20477;-69
2023/12/05 07:10:25;;;;;;;73.13;69.73;;;22.30;47.40;;;;;;5020327;28;20469;-69
2023/12/05 07:12:52;;;;;;;74.70;71.30;;;22.30;47.40;;;;;;5021777;28;20449;-68
2023/12/05 07:15:19;;;;;;;72.90;69.50;;;22.40;47.40;;;;;;5023597;28;20519;-67
2023/12/05 07:17:48;;;;;;;81.93;78.17;;;22.30;47.20;;;;;;5022809;28;20964;-69
2023/12/05 07:20:15;;;;;;;77.97;74.37;;;22.40;47.40;;;;;;5020237;28;20473;-70
2023/12/05 07:22:43;;;;;;;79.00;75.20;;;22.40;47.30;;;;;;5020398;28;20485;-67
2023/12/05 07:25:10;;;;;;;77.43;73.77;;;22.40;47.20;;;;;;5023729;28;20481;-63
2023/12/05 07:27:37;;;;;;;78.27;74.67;;;22.50;47.20;;;;;;5023466;28;20477;-64
2023/12/05 07:30:04;;;;;;;78.17;74.47;;;22.50;47.10;;;;;;5019796;28;20466;-63
2023/12/05 07:32:31;;;;;;;84.70;80.90;;;22.50;47.10;;;;;;5020175;28;20548;-69
2023/12/05 07:35:00;;;;;;;83.20;79.20;;;22.50;47.40;;;;;;5022155;28;20509;-64
2023/12/05 07:37:26;;;;;;;84.27;80.37;;;22.50;47.40;;;;;;5019562;28;20975;-65
2023/12/05 07:39:53;;;;;;;81.87;77.87;;;22.60;47.50;;;;;;5021653;28;20474;-62
2023/12/05 07:42:20;;;;;;;78.03;74.13;;;22.60;47.30;;;;;;5023408;28;20487;-66
2023/12/05 07:44:47;;;;;;;68.60;64.90;;;22.60;47.30;;;;;;5021699;28;20461;-67
2023/12/05 07:47:15;;;;;;;71.43;67.83;;;22.60;47.50;;;;;;5019886;28;20705;-68
2023/12/05 07:49:44;;;;;;;71.60;68.10;;;22.60;47.30;;;;;;5019872;28;20484;-67
2023/12/05 07:52:13;;;;;;;74.97;70.90;;;22.60;47.30;;;;;;5023448;28;20924;-67
2023/12/05 07:54:40;;;;;;;75.93;72.23;;;22.60;47.30;;;;;;5065429;22;20600;-71
2023/12/05 07:57:06;;;;;;;77.63;73.93;;;22.60;47.30;;;;;;5031156;28;20878;-70
2023/12/05 07:59:33;;;;;;;68.50;65.10;;;22.60;47.30;;;;;;5031513;28;20473;-70
2023/12/05 08:02:00;;;;;;;71.83;68.33;;;22.60;47.30;;;;;;5031120;28;20446;-67
2023/12/05 08:04:27;;;;;;;74.90;71.30;;;22.60;47.30;;;;;;5024944;28;20497;-69
2023/12/05 08:06:54;;;;;;;74.73;71.03;;;22.60;47.40;;;;;;5021402;28;20949;-71
2023/12/05 08:09:23;;;;;;;78.10;74.40;;;22.60;47.30;;;;;;5023083;28;20485;-65
2023/12/05 08:11:49;;;;;;;78.43;74.67;;;22.60;47.30;;;;;;5022164;28;20473;-65
2023/12/05 08:14:16;;;;;;;75.00;71.40;;;22.60;47.10;;;;;;5019761;28;20528;-66
2023/12/05 08:16:43;;;;;;;79.27;75.47;;;22.60;47.20;;;;;;5020192;28;20488;-65
2023/12/05 08:19:10;;;;;;;79.47;75.67;;;22.60;47.20;;;;;;5023399;28;20495;-66
2023/12/05 08:21:37;;;;;;;77.00;73.20;;;22.60;47.10;;;;;;5023298;28;20449;-65
2023/12/05 08:24:05;;;;;;;86.27;82.27;;;22.60;47.10;;;;;;5020062;28;20481;-65
2023/12/05 08:26:33;;;;;;;75.13;71.43;;;22.60;47.10;;;;;;5017639;28;20528;-65
2023/12/05 08:29:00;;;;;;;82.30;78.50;;;22.60;47.10;;;;;;5020072;28;20979;-65
2023/12/05 08:31:27;;;;;;;85.87;81.97;;;22.60;47.00;;;;;;5019480;28;20474;-65
2023/12/05 08:33:54;;;;;;;82.50;78.70;;;22.60;47.00;;;;;;5020818;28;20490;-65
2023/12/05 08:36:21;;;;;;;82.40;78.50;;;22.60;47.00;;;;;;5022857;28;20483;-65
2023/12/05 08:38:48;;;;;;;84.80;80.93;;;22.60;47.60;;;;;;5022245;28;20476;-66
2023/12/05 08:41:18;;;;;;;84.40;80.50;;;22.60;47.10;;;;;;5019450;28;20469;-69
2023/12/05 08:43:46;;;;;;;86.00;82.00;;;22.60;47.20;;;;;;5022417;28;20523;-66
2023/12/05 08:46:13;;;;;;;79.10;75.40;;;22.70;47.30;;;;;;5026388;28;20483;-66
2023/12/05 08:48:40;;;;;;;82.10;78.30;;;22.60;47.30;;;;;;5026452;28;20476;-66
2023/12/05 08:51:08;;;;;;;83.10;79.30;;;22.70;47.60;;;;;;5023158;28;20937;-67
2023/12/05 08:53:35;;;;;;;83.60;79.70;;;22.70;47.70;;;;;;5023110;28;20476;-65
2023/12/05 08:56:04;;;;;;;81.87;78.07;;;22.80;47.70;;;;;;5025022;28;20474;-65
2023/12/05 08:58:31;;;;;;;83.80;79.90;;;22.80;47.60;;;;;;5026396;28;20963;-65
2023/12/05 09:00:59;;;;;;;80.40;76.60;;;22.80;47.50;;;;;;5024398;28;20468;-65
2023/12/05 09:03:26;;;;;;;81.53;77.83;;;22.80;47.30;;;;;;5022969;28;20496;-65
2023/12/05 09:05:53;;;;;;;89.93;85.93;;;22.80;47.10;;;;;;5023476;28;20434;-65
2023/12/05 09:08:20;;;;;;;89.70;85.90;;;22.80;47.30;;;;;;5026143;28;20503;-65
2023/12/05 09:10:47;;;;;;;83.00;79.20;;;22.80;47.40;;;;;;5025817;28;20865;-68
2023/12/05 09:13:15;;;;;;;89.37;85.27;;;22.80;47.40;;;;;;5022969;28;20968;-68
2023/12/05 09:15:42;;;;;;;89.10;85.10;;;22.80;47.70;;;;;;5022330;28;20591;-67
2023/12/05 09:18:10;;;;;;;88.23;84.23;;;22.80;47.50;;;;;;5025733;28;20473;-67
2023/12/05 09:20:38;;;;;;;86.47;82.57;;;22.90;47.50;;;;;;5026083;28;20801;-67
2023/12/05 09:23:05;;;;;;;89.43;85.43;;;22.90;47.50;;;;;;5023165;28;20448;-67
2023/12/05 09:25:32;;;;;;;84.47;80.67;;;22.90;47.50;;;;;;5022027;28;20485;-69
2023/12/05 09:27:58;;;;;;;87.63;83.63;;;22.90;47.60;;;;;;5023998;28;20473;-68
2023/12/05 09:30:25;;;;;;;91.87;87.77;;;22.90;47.40;;;;;;5025753;28;20476;-69
2023/12/05 09:32:52;;;;;;;87.37;83.47;;;22.90;47.40;;;;;;5024753;28;20969;-65
2023/12/05 09:35:21;;;;;;;89.67;85.57;;;22.90;47.30;;;;;;5021924;28;20520;-65
2023/12/05 09:37:47;;;;;;;87.97;84.00;;;22.90;47.10;;;;;;5019245;28;20871;-64
2023/12/05 09:40:14;;;;;;;91.93;87.83;;;23.00;47.40;;;;;;5025890;28;20445;-65
2023/12/05 09:42:44;;;;;;;87.17;83.17;;;23.00;47.30;;;;;;5025617;28;20503;-64
2023/12/05 09:45:14;;;;;;;84.13;80.13;;;23.00;47.30;;;;;;5021788;28;20489;-65
2023/12/05 09:47:43;;;;;;;81.53;77.47;;;23.00;47.40;;;;;;5022199;28;20496;-65
2023/12/05 09:50:10;;;;;;;88.03;83.43;;;23.10;47.90;;;;;;5025424;28;20936;-65
2023/12/05 09:52:39;;;;;;;85.97;81.57;;;23.10;48.50;;;;;;5025180;28;20943;-65
2023/12/05 09:55:07;;;;;;;83.97;79.77;;;23.20;49.30;;;;;;5021944;28;20508;-65
2023/12/05 09:57:37;;;;;;;84.67;79.73;;;23.20;49.80;;;;;;5021930;28;20992;-65
2023/12/05 10:00:05;;;;;;;91.50;86.87;;;23.20;50.10;;;;;;5024149;28;20481;-65
2023/12/05 10:02:36;;;;;;;87.83;82.37;;;23.20;53.90;;;;;;5020361;28;20453;-66
2023/12/05 10:05:06;;;;;;;90.03;84.43;;;23.30;53.10;;;;;;5023797;28;20462;-69
2023/12/05 10:07:34;;;;;;;87.03;82.20;;;23.30;52.10;;;;;;5025004;28;20460;-68
2023/12/05 10:10:03;;;;;;;89.00;84.10;;;23.30;52.00;;;;;;5023280;28;20469;-69
2023/12/05 10:12:31;;;;;;;89.93;84.40;;;23.20;51.80;;;;;;5021325;28;20444;-64
2023/12/05 10:14:58;;;;;;;90.23;85.00;;;23.20;52.40;;;;;;5022385;28;20512;-63
2023/12/05 10:17:26;;;;;;;89.77;84.87;;;23.20;52.60;;;;;;5018978;28;20524;-63
2023/12/05 10:19:53;;;;;;;95.00;90.20;;;23.20;53.10;;;;;;5023811;28;20528;-63
2023/12/05 10:22:21;;;;;;;86.90;82.40;;;23.10;53.10;;;;;;5021159;28;20470;-63
2023/12/05 10:24:49;;;;;;;85.60;80.80;;;23.10;52.70;;;;;;5021195;28;20466;-63
2023/12/05 10:27:18;;;;;;;94.47;89.00;;;23.10;52.40;;;;;;5024356;28;20447;-63
2023/12/05 10:29:45;;;;;;;84.37;80.00;;;23.10;52.10;;;;;;5024529;28;20515;-63
2023/12/05 10:32:13;;;;;;;86.73;81.73;;;23.10;51.60;;;;;;5021043;28;20478;-63
2023/12/05 10:34:48;;;;;;;81.37;76.87;;;23.10;51.60;;;;;;5020886;28;20564;-63
2023/12/05 10:37:20;;;;;;;80.40;75.17;;;23.10;51.50;;;;;;5013096;28;20457;-63
2023/12/05 10:39:46;;;;;;;81.77;77.27;;;23.10;51.30;;;;;;5021017;28;20975;-63
2023/12/05 10:42:14;;;;;;;84.43;80.27;;;23.00;50.90;;;;;;5012746;28;20508;-63
2023/12/05 10:44:42;;;;;;;86.00;81.67;;;23.00;50.90;;;;;;5020887;28;20488;-63
2023/12/05 10:47:10;;;;;;;88.47;83.73;;;23.00;50.90;;;;;;5023390;28;20521;-63
2023/12/05 10:49:38;;;;;;;88.90;83.80;;;23.00;50.70;;;;;;5024164;28;20475;-63
2023/12/05 10:52:05;;;;;;;81.13;76.60;;;23.00;50.60;;;;;;5021838;28;20468;-63
2023/12/05 10:54:32;;;;;;;85.00;80.60;;;23.00;50.40;;;;;;5020438;28;20908;-63
2023/12/05 10:56:59;;;;;;;83.97;79.67;;;23.00;50.30;;;;;;5021931;28;20473;-63
2023/12/05 10:59:28;;;;;;;82.60;78.03;;;23.00;50.20;;;;;;5024018;28;20473;-63
2023/12/05 11:01:57;;;;;;;81.67;77.47;;;22.90;50.10;;;;;;5023092;28;20477;-63
2023/12/05 11:04:25;;;;;;;82.67;78.20;;;23.00;50.00;;;;;;5020133;28;20521;-63
2023/12/05 11:06:53;;;;;;;84.80;80.43;;;22.90;49.80;;;;;;5020197;28;20492;-62
2023/12/05 11:09:20;;;;;;;84.63;80.53;;;22.90;49.80;;;;;;5023756;28;20768;-63
2023/12/05 11:11:49;;;;;;;84.27;80.20;;;22.90;49.80;;;;;;5023826;28;20484;-63
2023/12/05 11:14:17;;;;;;;81.17;76.97;;;22.90;49.70;;;;;;5012319;28;20481;-63
2023/12/05 11:16:49;;;;;;;82.90;78.43;;;23.00;49.70;;;;;;5020167;28;20509;-63
2023/12/05 11:19:37;;;;;;;85.47;80.50;;;22.90;49.60;;;;;;5020250;28;20470;-62
2023/12/05 11:22:18;;;;;;;86.53;82.33;;;22.90;49.50;;;;;;5022072;28;20511;-63
2023/12/05 11:25:04;;;;;;;89.10;84.63;;;22.90;49.60;;;;;;5023734;28;20485;-63
2023/12/05 11:27:43;;;;;;;90.13;85.87;;;22.90;49.40;;;;;;5014143;28;20965;-62
2023/12/05 11:30:31;;;;;;;84.40;79.97;;;22.90;49.40;;;;;;5022750;28;20441;-63
2023/12/05 11:33:05;;;;;;;81.50;77.57;;;22.90;49.40;;;;;;5022366;28;20997;-63
2023/12/05 11:35:43;;;;;;;84.00;79.90;;;22.90;49.20;;;;;;5019343;28;20515;-62
2023/12/05 11:38:13;;;;;;;83.40;79.50;;;22.90;49.20;;;;;;5022776;28;20476;-63
2023/12/05 11:40:40;;;;;;;87.00;82.87;;;22.90;49.20;;;;;;5023425;28;20478;-68
2023/12/05 11:43:09;;;;;;;84.70;80.60;;;22.90;49.30;;;;;;5021172;28;20477;-73
2023/12/05 11:45:40;;;;;;;83.07;78.93;;;22.90;50.50;;;;;;5020257;28;20822;-65
2023/12/05 11:48:10;;;;;;;81.47;77.13;;;22.90;50.80;;;;;;5022068;28;20492;-65
2023/12/05 11:50:42;;;;;;;84.43;80.27;;;22.90;50.90;;;;;;5021086;28;20469;-65
2023/12/05 11:53:10;;;;;;;83.67;79.37;;;22.90;50.50;;;;;;5022307;28;20933;-63
2023/12/05 11:55:37;;;;;;;76.40;72.40;;;22.90;50.60;;;;;;5022664;28;21062;-65
2023/12/05 11:58:04;;;;;;;77.43;73.73;;;23.00;51.00;;;;;;5021429;28;20474;-65
2023/12/05 12:00:32;;;;;;;78.37;74.57;;;23.00;51.00;;;;;;5022958;28;20479;-66
2023/12/05 12:03:08;;;;;;;79.63;75.63;;;23.00;50.60;;;;;;5018452;28;20473;-65
2023/12/05 12:05:35;;;;;;;84.57;80.57;;;23.00;51.00;;;;;;5023332;28;20463;-65
2023/12/05 12:08:08;;;;;;;80.13;76.03;;;23.00;50.70;;;;;;5021661;28;20480;-63
2023/12/05 12:10:35;;;;;;;82.27;78.47;;;23.00;51.00;;;;;;5017615;28;20998;-65
2023/12/05 12:13:02;;;;;;;80.00;76.10;;;23.00;51.40;;;;;;5021803;28;20510;-65
2023/12/05 12:15:36;;;;;;;79.30;75.40;;;23.00;51.10;;;;;;5019720;28;20517;-64
2023/12/05 12:18:03;;;;;;;85.17;80.47;;;23.00;50.70;;;;;;5024792;28;20955;-64
2023/12/05 12:20:30;;;;;;;79.20;75.20;;;23.00;50.60;;;;;;5026943;28;20452;-64
2023/12/05 12:22:57;;;;;;;84.70;80.70;;;23.10;50.80;;;;;;5026251;28;20520;-70
2023/12/05 12:25:25;;;;;;;81.03;77.03;;;23.00;50.70;;;;;;5023519;28;20486;-66
2023/12/05 12:27:52;;;;;;;77.47;73.90;;;23.00;50.70;;;;;;5023568;28;21187;-67
2023/12/05 12:30:20;;;;;;;82.50;78.07;;;23.00;50.60;;;;;;5011596;28;20469;-69
2023/12/05 12:32:55;;;;;;;76.47;72.90;;;23.00;50.70;;;;;;5026709;28;20795;-68